CheckWX is a tool to help pilots better visualize weather data.  It is not intended as a substitute for an official pre-flight weather briefing.

16:16:07 UTC

ENHV METAR
Valan Airport
Honningsvåg, Norway
Current

26 mins ago

ENHV 201550Z 02020KT 9999 -SHSN FEW010 BKN035 M05/M09 Q1010
Observed
Feb-20 @ 15:50 UTC
Wind
  • 020° at 20 KTS
Visibility
10,000+ meters
Flight Rules
VFR
Conditions
Light Snow
Cloud Levels
  • Few at 1,000' AGL
  • Broken at 3,500' AGL
Temperature
-5°C / 23°F
Dewpoint
-9°C / 16°F
Humidity
74%
Altimeter
29.82" Hg
Pressure
1009.92 hPa
Previous

4 hours ago

ENHV 201220Z 33012KT 9999 SCT035 BKN051 M05/M10 Q1007
Observed
Feb-20 @ 12:20 UTC
Wind
  • 330° at 12 KTS
Visibility
10,000+ meters
Flight Rules
VFR
Cloud Levels
  • Scattered at 3,500' AGL
  • Broken at 5,100' AGL
Temperature
-5°C / 23°F
Dewpoint
-10°C / 14°F
Humidity
68%
Altimeter
29.73" Hg
Pressure
1006.92 hPa
Previous

5 hours ago

ENHV 201050Z 31017KT 9999 VCSH FEW022 SCT046 BKN060 M05/M11 Q1006
Observed
Feb-20 @ 10:50 UTC
Wind
  • 310° at 17 KTS
Visibility
10,000+ meters
Flight Rules
VFR
Cloud Levels
  • Few at 2,200' AGL
  • Scattered at 4,600' AGL
  • Broken at 6,000' AGL
Temperature
-5°C / 23°F
Dewpoint
-11°C / 12°F
Humidity
63%
Altimeter
29.7" Hg
Pressure
1005.92 hPa